sensor_id;sensor_type;location;lat;lon;timestamp;P1;durP1;ratioP1;P2;durP2;ratioP2
80653;SDS011;70020;45.524;10.240;2023-12-04T00:04:30;11.00;;;7.45;;
80653;SDS011;70020;45.524;10.240;2023-12-04T00:06:56;13.83;;;8.27;;
80653;SDS011;70020;45.524;10.240;2023-12-04T00:09:22;11.60;;;7.28;;
80653;SDS011;70020;45.524;10.240;2023-12-04T00:11:49;10.07;;;7.30;;
80653;SDS011;70020;45.524;10.240;2023-12-04T00:14:15;15.47;;;7.97;;
80653;SDS011;70020;45.524;10.240;2023-12-04T00:16:41;11.53;;;7.53;;
80653;SDS011;70020;45.524;10.240;2023-12-04T00:19:06;11.00;;;7.83;;
80653;SDS011;70020;45.524;10.240;2023-12-04T00:21:32;11.43;;;7.73;;
80653;SDS011;70020;45.524;10.240;2023-12-04T00:23:58;13.30;;;7.93;;
80653;SDS011;70020;45.524;10.240;2023-12-04T00:26:25;11.40;;;7.38;;
80653;SDS011;70020;45.524;10.240;2023-12-04T00:28:50;11.03;;;7.73;;
80653;SDS011;70020;45.524;10.240;2023-12-04T00:31:18;13.23;;;8.00;;
80653;SDS011;70020;45.524;10.240;2023-12-04T00:33:43;13.02;;;8.63;;
80653;SDS011;70020;45.524;10.240;2023-12-04T00:36:10;12.57;;;7.20;;
80653;SDS011;70020;45.524;10.240;2023-12-04T00:38:36;14.50;;;8.17;;
80653;SDS011;70020;45.524;10.240;2023-12-04T00:41:01;11.80;;;7.97;;
80653;SDS011;70020;45.524;10.240;2023-12-04T00:43:30;12.60;;;8.25;;
80653;SDS011;70020;45.524;10.240;2023-12-04T00:45:56;12.23;;;7.43;;
80653;SDS011;70020;45.524;10.240;2023-12-04T00:48:22;12.67;;;7.20;;
80653;SDS011;70020;45.524;10.240;2023-12-04T00:50:47;10.27;;;7.27;;
80653;SDS011;70020;45.524;10.240;2023-12-04T00:53:12;11.13;;;7.30;;
80653;SDS011;70020;45.524;10.240;2023-12-04T00:55:38;10.70;;;7.03;;
80653;SDS011;70020;45.524;10.240;2023-12-04T00:58:04;11.37;;;7.73;;
80653;SDS011;70020;45.524;10.240;2023-12-04T01:00:29;11.87;;;7.50;;
80653;SDS011;70020;45.524;10.240;2023-12-04T01:05:31;12.60;;;7.07;;
80653;SDS011;70020;45.524;10.240;2023-12-04T01:07:56;11.57;;;7.90;;
80653;SDS011;70020;45.524;10.240;2023-12-04T01:10:28;14.90;;;7.57;;
80653;SDS011;70020;45.524;10.240;2023-12-04T01:12:53;12.63;;;7.68;;
80653;SDS011;70020;45.524;10.240;2023-12-04T01:15:19;10.83;;;7.37;;
80653;SDS011;70020;45.524;10.240;2023-12-04T01:17:45;13.67;;;8.80;;
80653;SDS011;70020;45.524;10.240;2023-12-04T01:20:11;10.55;;;7.35;;
80653;SDS011;70020;45.524;10.240;2023-12-04T01:22:38;10.95;;;7.50;;
80653;SDS011;70020;45.524;10.240;2023-12-04T01:25:03;10.40;;;7.40;;
80653;SDS011;70020;45.524;10.240;2023-12-04T01:27:29;10.88;;;7.63;;
80653;SDS011;70020;45.524;10.240;2023-12-04T01:29:56;13.15;;;7.22;;
80653;SDS011;70020;45.524;10.240;2023-12-04T01:32:21;11.50;;;7.20;;
80653;SDS011;70020;45.524;10.240;2023-12-04T01:34:47;12.57;;;7.83;;
80653;SDS011;70020;45.524;10.240;2023-12-04T01:37:13;10.55;;;7.60;;
80653;SDS011;70020;45.524;10.240;2023-12-04T01:39:39;11.73;;;7.07;;
80653;SDS011;70020;45.524;10.240;2023-12-04T01:42:04;12.90;;;8.10;;
80653;SDS011;70020;45.524;10.240;2023-12-04T01:44:30;13.73;;;7.43;;
80653;SDS011;70020;45.524;10.240;2023-12-04T01:46:56;10.77;;;7.33;;
80653;SDS011;70020;45.524;10.240;2023-12-04T01:49:22;10.70;;;7.30;;
80653;SDS011;70020;45.524;10.240;2023-12-04T01:51:49;10.45;;;6.57;;
80653;SDS011;70020;45.524;10.240;2023-12-04T01:54:15;11.10;;;7.17;;
80653;SDS011;70020;45.524;10.240;2023-12-04T01:56:41;11.75;;;7.07;;
80653;SDS011;70020;45.524;10.240;2023-12-04T01:59:08;10.95;;;8.07;;
80653;SDS011;70020;45.524;10.240;2023-12-04T02:04:09;9.00;;;6.72;;
80653;SDS011;70020;45.524;10.240;2023-12-04T02:06:34;10.67;;;6.87;;
80653;SDS011;70020;45.524;10.240;2023-12-04T02:11:35;11.05;;;7.60;;
80653;SDS011;70020;45.524;10.240;2023-12-04T02:14:01;10.10;;;7.17;;
80653;SDS011;70020;45.524;10.240;2023-12-04T02:16:26;10.77;;;7.20;;
80653;SDS011;70020;45.524;10.240;2023-12-04T02:18:54;11.63;;;6.88;;
80653;SDS011;70020;45.524;10.240;2023-12-04T02:21:20;9.43;;;6.97;;
80653;SDS011;70020;45.524;10.240;2023-12-04T02:23:49;10.47;;;7.50;;
80653;SDS011;70020;45.524;10.240;2023-12-04T02:26:16;10.27;;;7.00;;
80653;SDS011;70020;45.524;10.240;2023-12-04T02:28:42;11.48;;;7.25;;
80653;SDS011;70020;45.524;10.240;2023-12-04T02:31:15;10.85;;;6.82;;
80653;SDS011;70020;45.524;10.240;2023-12-04T02:33:43;8.15;;;6.07;;
80653;SDS011;70020;45.524;10.240;2023-12-04T02:36:11;9.80;;;7.05;;
80653;SDS011;70020;45.524;10.240;2023-12-04T02:38:38;11.00;;;7.00;;
80653;SDS011;70020;45.524;10.240;2023-12-04T02:41:05;10.23;;;7.18;;
80653;SDS011;70020;45.524;10.240;2023-12-04T02:43:31;9.32;;;6.53;;
80653;SDS011;70020;45.524;10.240;2023-12-04T02:45:58;11.23;;;7.00;;
80653;SDS011;70020;45.524;10.240;2023-12-04T02:48:24;10.80;;;6.93;;
80653;SDS011;70020;45.524;10.240;2023-12-04T02:50:50;9.93;;;6.72;;
80653;SDS011;70020;45.524;10.240;2023-12-04T02:53:16;9.80;;;6.67;;
80653;SDS011;70020;45.524;10.240;2023-12-04T02:55:42;11.95;;;7.22;;
80653;SDS011;70020;45.524;10.240;2023-12-04T02:58:08;9.33;;;6.07;;
80653;SDS011;70020;45.524;10.240;2023-12-04T03:00:34;9.40;;;6.83;;
80653;SDS011;70020;45.524;10.240;2023-12-04T03:02:59;9.77;;;6.47;;
80653;SDS011;70020;45.524;10.240;2023-12-04T03:05:25;11.10;;;6.40;;
80653;SDS011;70020;45.524;10.240;2023-12-04T03:07:51;8.65;;;6.38;;
80653;SDS011;70020;45.524;10.240;2023-12-04T03:10:17;11.50;;;7.37;;
80653;SDS011;70020;45.524;10.240;2023-12-04T03:12:42;9.77;;;7.13;;
80653;SDS011;70020;45.524;10.240;2023-12-04T03:15:08;10.02;;;6.70;;
80653;SDS011;70020;45.524;10.240;2023-12-04T03:17:35;9.85;;;6.70;;
80653;SDS011;70020;45.524;10.240;2023-12-04T03:20:01;11.60;;;6.70;;
80653;SDS011;70020;45.524;10.240;2023-12-04T03:24:53;11.07;;;7.13;;
80653;SDS011;70020;45.524;10.240;2023-12-04T03:27:19;8.73;;;6.43;;
80653;SDS011;70020;45.524;10.240;2023-12-04T03:29:45;9.73;;;6.55;;
80653;SDS011;70020;45.524;10.240;2023-12-04T03:34:38;9.02;;;6.60;;
80653;SDS011;70020;45.524;10.240;2023-12-04T03:37:04;9.27;;;6.30;;
80653;SDS011;70020;45.524;10.240;2023-12-04T03:39:30;10.50;;;6.97;;
80653;SDS011;70020;45.524;10.240;2023-12-04T03:41:56;11.57;;;7.05;;
80653;SDS011;70020;45.524;10.240;2023-12-04T03:44:22;9.40;;;6.10;;
80653;SDS011;70020;45.524;10.240;2023-12-04T03:49:14;10.32;;;6.97;;
80653;SDS011;70020;45.524;10.240;2023-12-04T03:51:40;10.18;;;6.50;;
80653;SDS011;70020;45.524;10.240;2023-12-04T03:54:06;11.10;;;7.50;;
80653;SDS011;70020;45.524;10.240;2023-12-04T03:56:33;10.77;;;7.30;;
80653;SDS011;70020;45.524;10.240;2023-12-04T03:58:59;11.17;;;7.63;;
80653;SDS011;70020;45.524;10.240;2023-12-04T04:01:25;12.70;;;7.45;;
80653;SDS011;70020;45.524;10.240;2023-12-04T04:03:51;12.13;;;7.47;;
80653;SDS011;70020;45.524;10.240;2023-12-04T04:06:16;10.90;;;7.27;;
80653;SDS011;70020;45.524;10.240;2023-12-04T04:08:41;10.37;;;7.17;;
80653;SDS011;70020;45.524;10.240;2023-12-04T04:11:08;15.85;;;7.75;;
80653;SDS011;70020;45.524;10.240;2023-12-04T04:13:33;11.40;;;7.27;;
80653;SDS011;70020;45.524;10.240;2023-12-04T04:15:59;11.90;;;7.20;;
80653;SDS011;70020;45.524;10.240;2023-12-04T04:18:25;13.53;;;8.03;;
80653;SDS011;70020;45.524;10.240;2023-12-04T04:20:51;11.47;;;7.33;;
80653;SDS011;70020;45.524;10.240;2023-12-04T04:23:17;13.75;;;8.55;;
80653;SDS011;70020;45.524;10.240;2023-12-04T04:25:43;10.30;;;7.50;;
80653;SDS011;70020;45.524;10.240;2023-12-04T04:28:09;9.52;;;6.63;;
80653;SDS011;70020;45.524;10.240;2023-12-04T04:30:35;11.27;;;7.40;;
80653;SDS011;70020;45.524;10.240;2023-12-04T04:35:35;10.63;;;7.03;;
80653;SDS011;70020;45.524;10.240;2023-12-04T04:38:02;9.50;;;7.35;;
80653;SDS011;70020;45.524;10.240;2023-12-04T04:40:28;10.53;;;6.87;;
80653;SDS011;70020;45.524;10.240;2023-12-04T04:42:53;9.67;;;7.07;;
80653;SDS011;70020;45.524;10.240;2023-12-04T04:45:20;12.10;;;7.43;;
80653;SDS011;70020;45.524;10.240;2023-12-04T04:47:46;11.18;;;7.47;;
80653;SDS011;70020;45.524;10.240;2023-12-04T04:50:12;13.43;;;7.57;;
80653;SDS011;70020;45.524;10.240;2023-12-04T04:52:37;11.87;;;7.47;;
80653;SDS011;70020;45.524;10.240;2023-12-04T04:55:04;10.15;;;7.43;;
80653;SDS011;70020;45.524;10.240;2023-12-04T04:57:31;12.35;;;7.45;;
80653;SDS011;70020;45.524;10.240;2023-12-04T05:00:00;10.70;;;7.80;;
80653;SDS011;70020;45.524;10.240;2023-12-04T05:02:26;12.40;;;7.32;;
80653;SDS011;70020;45.524;10.240;2023-12-04T05:07:19;11.13;;;7.20;;
80653;SDS011;70020;45.524;10.240;2023-12-04T05:09:48;10.93;;;7.18;;
80653;SDS011;70020;45.524;10.240;2023-12-04T05:12:13;10.57;;;7.30;;
80653;SDS011;70020;45.524;10.240;2023-12-04T05:14:39;10.33;;;7.23;;
80653;SDS011;70020;45.524;10.240;2023-12-04T05:17:05;14.70;;;8.17;;
80653;SDS011;70020;45.524;10.240;2023-12-04T05:19:31;10.03;;;7.37;;
80653;SDS011;70020;45.524;10.240;2023-12-04T05:21:57;10.40;;;7.03;;
80653;SDS011;70020;45.524;10.240;2023-12-04T05:24:23;9.47;;;7.30;;
80653;SDS011;70020;45.524;10.240;2023-12-04T05:26:48;9.57;;;7.57;;
80653;SDS011;70020;45.524;10.240;2023-12-04T05:29:14;13.53;;;8.30;;
80653;SDS011;70020;45.524;10.240;2023-12-04T05:31:40;9.47;;;7.13;;
80653;SDS011;70020;45.524;10.240;2023-12-04T05:34:06;12.07;;;7.20;;
80653;SDS011;70020;45.524;10.240;2023-12-04T05:36:31;11.43;;;7.37;;
80653;SDS011;70020;45.524;10.240;2023-12-04T05:41:33;12.20;;;7.05;;
80653;SDS011;70020;45.524;10.240;2023-12-04T05:43:59;11.07;;;7.07;;
80653;SDS011;70020;45.524;10.240;2023-12-04T05:46:25;10.00;;;7.20;;
80653;SDS011;70020;45.524;10.240;2023-12-04T05:48:50;8.03;;;6.33;;
80653;SDS011;70020;45.524;10.240;2023-12-04T05:51:16;9.97;;;6.87;;
80653;SDS011;70020;45.524;10.240;2023-12-04T05:53:42;9.33;;;6.30;;
80653;SDS011;70020;45.524;10.240;2023-12-04T05:56:08;10.82;;;7.03;;
80653;SDS011;70020;45.524;10.240;2023-12-04T05:58:34;8.70;;;6.30;;
80653;SDS011;70020;45.524;10.240;2023-12-04T06:01:00;9.95;;;6.78;;
80653;SDS011;70020;45.524;10.240;2023-12-04T06:03:26;9.93;;;6.77;;
80653;SDS011;70020;45.524;10.240;2023-12-04T06:05:52;10.53;;;6.63;;
80653;SDS011;70020;45.524;10.240;2023-12-04T06:08:18;12.80;;;6.40;;
80653;SDS011;70020;45.524;10.240;2023-12-04T06:10:45;11.35;;;7.28;;
80653;SDS011;70020;45.524;10.240;2023-12-04T06:13:11;11.13;;;6.93;;
80653;SDS011;70020;45.524;10.240;2023-12-04T06:15:37;10.00;;;7.10;;
80653;SDS011;70020;45.524;10.240;2023-12-04T06:18:03;12.90;;;7.33;;
80653;SDS011;70020;45.524;10.240;2023-12-04T06:20:29;11.30;;;7.65;;
80653;SDS011;70020;45.524;10.240;2023-12-04T06:22:55;11.60;;;7.63;;
80653;SDS011;70020;45.524;10.240;2023-12-04T06:25:21;11.60;;;7.63;;
80653;SDS011;70020;45.524;10.240;2023-12-04T06:27:49;12.27;;;7.32;;
80653;SDS011;70020;45.524;10.240;2023-12-04T06:30:17;17.63;;;7.80;;
80653;SDS011;70020;45.524;10.240;2023-12-04T06:32:43;12.80;;;7.95;;
80653;SDS011;70020;45.524;10.240;2023-12-04T06:35:10;13.90;;;8.30;;
80653;SDS011;70020;45.524;10.240;2023-12-04T06:37:38;10.60;;;7.63;;
80653;SDS011;70020;45.524;10.240;2023-12-04T06:40:05;11.55;;;7.70;;
80653;SDS011;70020;45.524;10.240;2023-12-04T06:42:33;11.38;;;7.75;;
80653;SDS011;70020;45.524;10.240;2023-12-04T06:45:00;9.77;;;7.88;;
80653;SDS011;70020;45.524;10.240;2023-12-04T06:47:28;13.82;;;7.53;;
80653;SDS011;70020;45.524;10.240;2023-12-04T06:49:56;13.80;;;8.10;;
80653;SDS011;70020;45.524;10.240;2023-12-04T06:52:22;10.60;;;7.20;;
80653;SDS011;70020;45.524;10.240;2023-12-04T06:54:49;16.27;;;7.97;;
80653;SDS011;70020;45.524;10.240;2023-12-04T06:57:15;15.45;;;7.80;;
80653;SDS011;70020;45.524;10.240;2023-12-04T06:59:41;10.10;;;7.47;;
80653;SDS011;70020;45.524;10.240;2023-12-04T07:02:07;13.98;;;7.30;;
80653;SDS011;70020;45.524;10.240;2023-12-04T07:04:33;11.13;;;7.77;;
80653;SDS011;70020;45.524;10.240;2023-12-04T07:06:59;12.32;;;7.45;;
80653;SDS011;70020;45.524;10.240;2023-12-04T07:09:30;14.65;;;8.20;;
80653;SDS011;70020;45.524;10.240;2023-12-04T07:11:59;11.75;;;7.50;;
80653;SDS011;70020;45.524;10.240;2023-12-04T07:14:25;10.18;;;7.45;;
80653;SDS011;70020;45.524;10.240;2023-12-04T07:16:51;31.93;;;11.67;;
80653;SDS011;70020;45.524;10.240;2023-12-04T07:19:17;13.43;;;8.17;;
80653;SDS011;70020;45.524;10.240;2023-12-04T07:21:42;12.20;;;7.47;;
80653;SDS011;70020;45.524;10.240;2023-12-04T07:24:08;16.73;;;8.33;;
80653;SDS011;70020;45.524;10.240;2023-12-04T07:26:35;14.50;;;8.38;;
80653;SDS011;70020;45.524;10.240;2023-12-04T07:29:01;12.20;;;8.55;;
80653;SDS011;70020;45.524;10.240;2023-12-04T07:31:28;16.95;;;8.00;;
80653;SDS011;70020;45.524;10.240;2023-12-04T07:33:54;14.50;;;7.88;;
80653;SDS011;70020;45.524;10.240;2023-12-04T07:36:20;16.05;;;8.93;;
80653;SDS011;70020;45.524;10.240;2023-12-04T07:38:45;14.40;;;8.57;;
80653;SDS011;70020;45.524;10.240;2023-12-04T07:41:11;14.73;;;8.30;;
80653;SDS011;70020;45.524;10.240;2023-12-04T07:43:37;11.27;;;7.30;;
80653;SDS011;70020;45.524;10.240;2023-12-04T07:46:03;16.40;;;8.10;;
80653;SDS011;70020;45.524;10.240;2023-12-04T07:48:29;14.45;;;7.30;;
80653;SDS011;70020;45.524;10.240;2023-12-04T07:53:21;11.38;;;7.80;;
80653;SDS011;70020;45.524;10.240;2023-12-04T07:55:47;11.05;;;7.80;;
80653;SDS011;70020;45.524;10.240;2023-12-04T07:58:14;11.68;;;7.45;;
80653;SDS011;70020;45.524;10.240;2023-12-04T08:00:40;11.43;;;7.63;;
80653;SDS011;70020;45.524;10.240;2023-12-04T08:03:05;13.40;;;7.73;;
80653;SDS011;70020;45.524;10.240;2023-12-04T08:05:32;13.50;;;7.40;;
80653;SDS011;70020;45.524;10.240;2023-12-04T08:10:24;12.70;;;8.60;;
80653;SDS011;70020;45.524;10.240;2023-12-04T08:12:51;13.48;;;8.73;;
80653;SDS011;70020;45.524;10.240;2023-12-04T08:15:16;12.77;;;8.93;;
80653;SDS011;70020;45.524;10.240;2023-12-04T08:17:44;15.17;;;8.97;;
80653;SDS011;70020;45.524;10.240;2023-12-04T08:20:10;18.17;;;8.98;;
80653;SDS011;70020;45.524;10.240;2023-12-04T08:22:39;16.55;;;8.90;;
80653;SDS011;70020;45.524;10.240;2023-12-04T08:25:09;20.02;;;10.02;;
80653;SDS011;70020;45.524;10.240;2023-12-04T08:27:36;13.30;;;8.95;;
80653;SDS011;70020;45.524;10.240;2023-12-04T08:30:03;14.43;;;9.33;;
80653;SDS011;70020;45.524;10.240;2023-12-04T08:32:30;14.40;;;9.32;;
80653;SDS011;70020;45.524;10.240;2023-12-04T08:34:56;15.07;;;9.73;;
80653;SDS011;70020;45.524;10.240;2023-12-04T08:37:22;22.63;;;9.82;;
80653;SDS011;70020;45.524;10.240;2023-12-04T08:39:48;15.67;;;9.60;;
80653;SDS011;70020;45.524;10.240;2023-12-04T08:42:13;16.20;;;9.13;;
80653;SDS011;70020;45.524;10.240;2023-12-04T08:44:39;13.27;;;9.40;;
80653;SDS011;70020;45.524;10.240;2023-12-04T08:47:05;13.30;;;9.15;;
80653;SDS011;70020;45.524;10.240;2023-12-04T08:49:31;15.73;;;9.13;;
80653;SDS011;70020;45.524;10.240;2023-12-04T08:51:57;18.10;;;9.90;;
80653;SDS011;70020;45.524;10.240;2023-12-04T08:54:24;14.13;;;9.02;;
80653;SDS011;70020;45.524;10.240;2023-12-04T08:56:50;17.05;;;9.23;;
80653;SDS011;70020;45.524;10.240;2023-12-04T08:59:15;14.63;;;8.50;;
80653;SDS011;70020;45.524;10.240;2023-12-04T09:01:41;14.23;;;8.97;;
80653;SDS011;70020;45.524;10.240;2023-12-04T09:04:08;14.68;;;8.82;;
80653;SDS011;70020;45.524;10.240;2023-12-04T09:06:34;24.98;;;8.55;;
80653;SDS011;70020;45.524;10.240;2023-12-04T09:09:00;14.53;;;8.53;;
80653;SDS011;70020;45.524;10.240;2023-12-04T09:11:25;14.93;;;8.30;;
80653;SDS011;70020;45.524;10.240;2023-12-04T09:13:51;14.53;;;8.47;;
80653;SDS011;70020;45.524;10.240;2023-12-04T09:16:17;13.82;;;8.45;;
80653;SDS011;70020;45.524;10.240;2023-12-04T09:18:43;15.60;;;8.37;;
80653;SDS011;70020;45.524;10.240;2023-12-04T09:21:09;14.30;;;9.40;;
80653;SDS011;70020;45.524;10.240;2023-12-04T09:23:35;12.33;;;8.80;;
80653;SDS011;70020;45.524;10.240;2023-12-04T09:26:01;15.95;;;9.23;;
80653;SDS011;70020;45.524;10.240;2023-12-04T09:28:27;19.63;;;10.23;;
80653;SDS011;70020;45.524;10.240;2023-12-04T09:30:53;18.10;;;9.52;;
80653;SDS011;70020;45.524;10.240;2023-12-04T09:33:18;17.10;;;10.67;;
80653;SDS011;70020;45.524;10.240;2023-12-04T09:35:44;18.97;;;10.17;;
80653;SDS011;70020;45.524;10.240;2023-12-04T09:38:10;18.00;;;10.35;;
80653;SDS011;70020;45.524;10.240;2023-12-04T09:40:37;24.50;;;11.10;;
80653;SDS011;70020;45.524;10.240;2023-12-04T09:43:03;18.88;;;11.07;;
80653;SDS011;70020;45.524;10.240;2023-12-04T09:45:31;19.73;;;11.25;;
80653;SDS011;70020;45.524;10.240;2023-12-04T09:47:57;18.20;;;11.18;;
80653;SDS011;70020;45.524;10.240;2023-12-04T09:50:24;24.27;;;11.43;;
80653;SDS011;70020;45.524;10.240;2023-12-04T09:52:50;17.50;;;10.43;;
80653;SDS011;70020;45.524;10.240;2023-12-04T09:55:18;17.58;;;10.77;;
80653;SDS011;70020;45.524;10.240;2023-12-04T09:57:46;21.63;;;12.23;;
80653;SDS011;70020;45.524;10.240;2023-12-04T10:00:14;18.63;;;11.43;;
80653;SDS011;70020;45.524;10.240;2023-12-04T10:02:41;15.65;;;10.88;;
80653;SDS011;70020;45.524;10.240;2023-12-04T10:05:07;19.95;;;12.05;;
80653;SDS011;70020;45.524;10.240;2023-12-04T10:07:34;15.95;;;10.80;;
80653;SDS011;70020;45.524;10.240;2023-12-04T10:10:01;15.95;;;10.90;;
80653;SDS011;70020;45.524;10.240;2023-12-04T10:12:30;17.10;;;11.02;;
80653;SDS011;70020;45.524;10.240;2023-12-04T10:15:03;16.85;;;10.40;;
80653;SDS011;70020;45.524;10.240;2023-12-04T10:17:33;16.48;;;10.45;;
80653;SDS011;70020;45.524;10.240;2023-12-04T10:20:09;17.75;;;10.45;;
80653;SDS011;70020;45.524;10.240;2023-12-04T10:25:24;17.77;;;10.18;;
80653;SDS011;70020;45.524;10.240;2023-12-04T10:27:52;17.95;;;11.00;;
80653;SDS011;70020;45.524;10.240;2023-12-04T10:32:48;15.95;;;10.35;;
80653;SDS011;70020;45.524;10.240;2023-12-04T10:35:14;18.80;;;10.37;;
80653;SDS011;70020;45.524;10.240;2023-12-04T10:37:40;21.80;;;10.23;;
80653;SDS011;70020;45.524;10.240;2023-12-04T10:40:06;21.70;;;10.30;;
80653;SDS011;70020;45.524;10.240;2023-12-04T10:42:34;18.38;;;10.77;;
80653;SDS011;70020;45.524;10.240;2023-12-04T10:45:00;14.47;;;10.43;;
80653;SDS011;70020;45.524;10.240;2023-12-04T10:47:27;20.45;;;10.43;;
80653;SDS011;70020;45.524;10.240;2023-12-04T10:49:57;19.42;;;10.60;;
80653;SDS011;70020;45.524;10.240;2023-12-04T10:52:23;20.60;;;11.40;;
80653;SDS011;70020;45.524;10.240;2023-12-04T10:54:48;18.93;;;11.07;;
80653;SDS011;70020;45.524;10.240;2023-12-04T10:57:27;20.65;;;12.10;;
80653;SDS011;70020;45.524;10.240;2023-12-04T11:00:02;22.95;;;11.98;;
80653;SDS011;70020;45.524;10.240;2023-12-04T11:02:31;18.77;;;11.98;;
80653;SDS011;70020;45.524;10.240;2023-12-04T11:05:07;18.83;;;11.60;;
80653;SDS011;70020;45.524;10.240;2023-12-04T11:07:43;19.88;;;11.13;;
80653;SDS011;70020;45.524;10.240;2023-12-04T11:10:14;18.95;;;10.45;;
80653;SDS011;70020;45.524;10.240;2023-12-04T11:12:43;17.88;;;11.80;;
80653;SDS011;70020;45.524;10.240;2023-12-04T11:15:10;16.65;;;11.40;;
80653;SDS011;70020;45.524;10.240;2023-12-04T11:17:39;19.63;;;12.27;;
80653;SDS011;70020;45.524;10.240;2023-12-04T11:20:22;21.02;;;12.80;;
80653;SDS011;70020;45.524;10.240;2023-12-04T11:22:56;23.63;;;12.55;;
80653;SDS011;70020;45.524;10.240;2023-12-04T11:25:21;22.70;;;13.10;;
80653;SDS011;70020;45.524;10.240;2023-12-04T11:27:49;23.73;;;12.93;;
80653;SDS011;70020;45.524;10.240;2023-12-04T11:30:17;21.13;;;12.63;;
80653;SDS011;70020;45.524;10.240;2023-12-04T11:32:46;23.17;;;13.07;;
80653;SDS011;70020;45.524;10.240;2023-12-04T11:35:14;20.98;;;12.95;;
80653;SDS011;70020;45.524;10.240;2023-12-04T11:37:42;24.23;;;14.93;;
80653;SDS011;70020;45.524;10.240;2023-12-04T11:40:12;20.55;;;13.52;;
80653;SDS011;70020;45.524;10.240;2023-12-04T11:42:41;21.45;;;13.15;;
80653;SDS011;70020;45.524;10.240;2023-12-04T11:45:07;19.80;;;13.48;;
80653;SDS011;70020;45.524;10.240;2023-12-04T11:50:25;27.35;;;12.98;;
80653;SDS011;70020;45.524;10.240;2023-12-04T11:52:51;21.05;;;14.15;;
80653;SDS011;70020;45.524;10.240;2023-12-04T11:55:22;22.65;;;14.07;;
80653;SDS011;70020;45.524;10.240;2023-12-04T11:57:49;23.77;;;13.02;;
80653;SDS011;70020;45.524;10.240;2023-12-04T12:00:22;19.20;;;12.40;;
80653;SDS011;70020;45.524;10.240;2023-12-04T12:05:21;31.25;;;12.93;;
80653;SDS011;70020;45.524;10.240;2023-12-04T12:07:48;28.13;;;13.10;;
80653;SDS011;70020;45.524;10.240;2023-12-04T12:10:14;27.87;;;12.60;;
80653;SDS011;70020;45.524;10.240;2023-12-04T12:12:44;20.00;;;12.07;;
80653;SDS011;70020;45.524;10.240;2023-12-04T12:15:11;20.88;;;11.75;;
80653;SDS011;70020;45.524;10.240;2023-12-04T12:17:37;20.35;;;11.68;;
80653;SDS011;70020;45.524;10.240;2023-12-04T12:24:57;21.23;;;11.10;;
80653;SDS011;70020;45.524;10.240;2023-12-04T12:27:24;19.70;;;11.67;;
80653;SDS011;70020;45.524;10.240;2023-12-04T12:29:50;22.10;;;12.13;;
80653;SDS011;70020;45.524;10.240;2023-12-04T12:32:17;20.85;;;11.65;;
80653;SDS011;70020;45.524;10.240;2023-12-04T12:34:42;21.13;;;11.60;;
80653;SDS011;70020;45.524;10.240;2023-12-04T12:37:08;18.47;;;11.27;;
80653;SDS011;70020;45.524;10.240;2023-12-04T12:39:34;18.95;;;11.60;;
80653;SDS011;70020;45.524;10.240;2023-12-04T12:42:00;27.07;;;16.13;;
80653;SDS011;70020;45.524;10.240;2023-12-04T12:44:26;27.30;;;14.98;;
80653;SDS011;70020;45.524;10.240;2023-12-04T12:49:18;27.63;;;16.70;;
80653;SDS011;70020;45.524;10.240;2023-12-04T12:51:45;23.67;;;16.73;;
80653;SDS011;70020;45.524;10.240;2023-12-04T12:54:11;24.88;;;16.75;;
80653;SDS011;70020;45.524;10.240;2023-12-04T12:56:37;25.60;;;16.23;;
80653;SDS011;70020;45.524;10.240;2023-12-04T12:59:02;28.70;;;16.70;;
80653;SDS011;70020;45.524;10.240;2023-12-04T13:01:31;23.55;;;15.95;;
80653;SDS011;70020;45.524;10.240;2023-12-04T13:03:58;25.20;;;15.80;;
80653;SDS011;70020;45.524;10.240;2023-12-04T13:06:23;24.33;;;14.87;;
80653;SDS011;70020;45.524;10.240;2023-12-04T13:08:49;29.30;;;15.38;;
80653;SDS011;70020;45.524;10.240;2023-12-04T13:11:15;29.67;;;15.33;;
80653;SDS011;70020;45.524;10.240;2023-12-04T13:13:41;27.98;;;15.43;;
80653;SDS011;70020;45.524;10.240;2023-12-04T13:16:07;24.20;;;14.03;;
80653;SDS011;70020;45.524;10.240;2023-12-04T13:18:33;24.23;;;15.20;;
80653;SDS011;70020;45.524;10.240;2023-12-04T13:21:01;22.38;;;15.65;;
80653;SDS011;70020;45.524;10.240;2023-12-04T13:23:30;25.25;;;15.38;;
80653;SDS011;70020;45.524;10.240;2023-12-04T13:25:55;21.77;;;14.70;;
80653;SDS011;70020;45.524;10.240;2023-12-04T13:28:21;23.47;;;15.47;;
80653;SDS011;70020;45.524;10.240;2023-12-04T13:30:46;22.53;;;14.20;;
80653;SDS011;70020;45.524;10.240;2023-12-04T13:33:15;32.00;;;15.13;;
80653;SDS011;70020;45.524;10.240;2023-12-04T13:35:41;21.65;;;15.02;;
80653;SDS011;70020;45.524;10.240;2023-12-04T13:38:07;21.90;;;15.00;;
80653;SDS011;70020;45.524;10.240;2023-12-04T13:40:38;23.73;;;15.82;;
80653;SDS011;70020;45.524;10.240;2023-12-04T13:43:04;23.85;;;14.70;;
80653;SDS011;70020;45.524;10.240;2023-12-04T13:45:49;25.33;;;15.43;;
80653;SDS011;70020;45.524;10.240;2023-12-04T13:48:16;24.92;;;15.65;;
80653;SDS011;70020;45.524;10.240;2023-12-04T13:50:43;22.27;;;15.27;;
80653;SDS011;70020;45.524;10.240;2023-12-04T13:53:09;21.98;;;14.38;;
80653;SDS011;70020;45.524;10.240;2023-12-04T13:55:35;23.57;;;15.17;;
80653;SDS011;70020;45.524;10.240;2023-12-04T13:58:21;19.50;;;13.40;;
80653;SDS011;70020;45.524;10.240;2023-12-04T14:01:04;20.73;;;14.75;;
80653;SDS011;70020;45.524;10.240;2023-12-04T14:03:40;19.88;;;14.73;;
80653;SDS011;70020;45.524;10.240;2023-12-04T14:06:06;22.48;;;14.80;;
80653;SDS011;70020;45.524;10.240;2023-12-04T14:08:32;22.87;;;14.37;;
80653;SDS011;70020;45.524;10.240;2023-12-04T14:10:58;24.07;;;15.53;;
80653;SDS011;70020;45.524;10.240;2023-12-04T14:13:24;22.83;;;13.88;;
80653;SDS011;70020;45.524;10.240;2023-12-04T14:15:50;21.95;;;14.05;;
80653;SDS011;70020;45.524;10.240;2023-12-04T14:18:16;26.02;;;15.98;;
80653;SDS011;70020;45.524;10.240;2023-12-04T14:20:42;21.33;;;14.38;;
80653;SDS011;70020;45.524;10.240;2023-12-04T14:23:08;24.03;;;15.20;;
80653;SDS011;70020;45.524;10.240;2023-12-04T14:25:35;24.67;;;15.27;;
80653;SDS011;70020;45.524;10.240;2023-12-04T14:28:01;23.23;;;13.60;;
80653;SDS011;70020;45.524;10.240;2023-12-04T14:30:27;21.25;;;13.50;;
80653;SDS011;70020;45.524;10.240;2023-12-04T14:32:53;19.97;;;13.27;;
80653;SDS011;70020;45.524;10.240;2023-12-04T14:35:18;21.03;;;13.43;;
80653;SDS011;70020;45.524;10.240;2023-12-04T14:37:44;20.27;;;13.13;;
80653;SDS011;70020;45.524;10.240;2023-12-04T14:40:13;18.17;;;12.20;;
80653;SDS011;70020;45.524;10.240;2023-12-04T14:42:40;17.23;;;12.52;;
80653;SDS011;70020;45.524;10.240;2023-12-04T14:45:05;17.60;;;12.43;;
80653;SDS011;70020;45.524;10.240;2023-12-04T14:47:32;16.13;;;11.98;;
80653;SDS011;70020;45.524;10.240;2023-12-04T14:49:57;22.40;;;13.77;;
80653;SDS011;70020;45.524;10.240;2023-12-04T14:52:23;19.07;;;13.13;;
80653;SDS011;70020;45.524;10.240;2023-12-04T14:54:48;24.03;;;13.97;;
80653;SDS011;70020;45.524;10.240;2023-12-04T14:57:35;21.43;;;14.83;;
80653;SDS011;70020;45.524;10.240;2023-12-04T15:00:03;23.30;;;14.85;;
80653;SDS011;70020;45.524;10.240;2023-12-04T15:02:48;24.13;;;15.68;;
80653;SDS011;70020;45.524;10.240;2023-12-04T15:05:32;21.35;;;14.10;;